createdAt,value
2023-04-24T00:02:11.823Z,98511.78
2023-04-24T00:04:58.243Z,98515.25
2023-04-24T00:07:45.031Z,98509.03
2023-04-24T00:10:31.549Z,98503.94
2023-04-24T00:13:18.864Z,98497.03
2023-04-24T00:16:06.175Z,98509.03
2023-04-24T00:18:53.533Z,98507.75
2023-04-24T00:21:39.287Z,98500.88
2023-04-24T00:24:25.341Z,98501.28
2023-04-24T00:27:17.774Z,98494.16
2023-04-24T00:30:12.890Z,98497.63
2023-04-24T00:33:05.725Z,98497.50
2023-04-24T00:35:58.725Z,98487.28
2023-04-24T00:38:52.051Z,98501.06
2023-04-24T00:45:01.667Z,98503.78
2023-04-24T00:47:55.811Z,98496.66
2023-04-24T00:50:49.027Z,98496.53
2023-04-24T00:53:41.902Z,98494.75
2023-04-24T00:56:34.803Z,98484.97
2023-04-24T00:59:27.808Z,98487.25
2023-04-24T01:02:22.134Z,98484.00
2023-04-24T01:05:18.084Z,98480.94
2023-04-24T01:08:10.937Z,98490.66
2023-04-24T01:11:05.421Z,98485.00
2023-04-24T01:13:59.806Z,98475.19
2023-04-24T01:16:52.899Z,98483.81
2023-04-24T01:19:47.018Z,98485.84
2023-04-24T01:22:41.786Z,98486.13
2023-04-24T01:25:34.679Z,98472.81
2023-04-24T01:28:26.749Z,98473.56
2023-04-24T01:31:20.217Z,98471.94
2023-04-24T01:34:12.640Z,98476.06
2023-04-24T01:37:05.911Z,98469.25
2023-04-24T01:40:00.163Z,98466.75
2023-04-24T01:42:53.145Z,98470.88
2023-04-24T01:45:46.102Z,98476.13
2023-04-24T01:48:38.694Z,98473.75
2023-04-24T01:51:32.495Z,98475.06
2023-04-24T01:54:25.184Z,98467.91
2023-04-24T01:57:19.250Z,98466.22
2023-04-24T02:00:13.204Z,98470.06
2023-04-24T02:03:05.836Z,98473.81
2023-04-24T02:05:58.896Z,98475.00
2023-04-24T02:12:09.323Z,98476.75
2023-04-24T02:18:16.447Z,98474.63
2023-04-24T02:21:08.760Z,98470.19
2023-04-24T02:24:08.864Z,98479.22
2023-04-24T02:27:03.759Z,98469.63
2023-04-24T02:29:57.020Z,98481.69
2023-04-24T02:36:01.949Z,98485.41
2023-04-24T02:42:02.593Z,98483.31
2023-04-24T02:44:56.559Z,98480.38
2023-04-24T02:47:49.047Z,98471.06
2023-04-24T02:50:41.924Z,98472.00
2023-04-24T02:53:36.368Z,98473.41
2023-04-24T02:56:28.785Z,98475.38
2023-04-24T03:02:35.255Z,98470.38
2023-04-24T03:08:45.543Z,98476.84
2023-04-24T03:14:49.155Z,98480.53
2023-04-24T03:17:41.988Z,98468.38
2023-04-24T03:20:34.805Z,98467.50
2023-04-24T03:23:27.928Z,98475.25
2023-04-24T03:26:22.296Z,98473.97
2023-04-24T03:29:30.294Z,98474.19
2023-04-24T03:32:23.920Z,98475.31
2023-04-24T03:35:17.144Z,98472.69
2023-04-24T03:38:09.840Z,98471.16
2023-04-24T03:41:24.543Z,98477.41
2023-04-24T03:44:22.326Z,98470.16
2023-04-24T03:50:31.072Z,98472.78
2023-04-24T03:56:42.558Z,98470.00
2023-04-24T04:02:52.274Z,98469.53
2023-04-24T04:09:02.437Z,98474.97
2023-04-24T04:11:57.372Z,98476.25
2023-04-24T04:14:47.562Z,98480.69
2023-04-24T04:17:41.205Z,98477.25
2023-04-24T04:20:34.175Z,98469.34
2023-04-24T04:27:06.412Z,98472.56
2023-04-24T04:30:06.383Z,98472.84
2023-04-24T04:33:06.803Z,98473.91
2023-04-24T04:39:15.227Z,98468.38
2023-04-24T04:42:22.128Z,98474.53
2023-04-24T04:45:18.008Z,98476.34
2023-04-24T04:48:32.319Z,98482.38
2023-04-24T04:51:26.698Z,98484.09
2023-04-24T04:54:19.857Z,98483.31
2023-04-24T04:57:12.995Z,98484.34
2023-04-24T05:00:11.342Z,98487.56
2023-04-24T05:03:20.754Z,98492.28
2023-04-24T05:06:17.001Z,98495.22
2023-04-24T05:09:11.010Z,98509.34
2023-04-24T05:12:20.989Z,98522.22
2023-04-24T05:15:19.235Z,98516.28
2023-04-24T05:18:11.703Z,98521.00
2023-04-24T05:21:04.966Z,98518.00
2023-04-24T05:23:57.748Z,98521.50
2023-04-24T05:27:30.862Z,98527.38
2023-04-24T05:30:25.511Z,98524.44
2023-04-24T05:33:29.179Z,98518.34
2023-04-24T05:36:22.294Z,98528.00
2023-04-24T05:39:14.757Z,98523.16
2023-04-24T05:42:08.215Z,98520.44
2023-04-24T05:48:14.532Z,98530.66
2023-04-24T05:54:23.912Z,98536.88
2023-04-24T05:57:16.686Z,98529.00
2023-04-24T06:00:21.034Z,98529.41
2023-04-24T06:03:24.116Z,98523.78
2023-04-24T06:06:16.999Z,98533.78
2023-04-24T06:09:11.149Z,98543.53
2023-04-24T06:12:04.441Z,98539.66
2023-04-24T06:15:12.565Z,98536.41
2023-04-24T06:18:17.696Z,98534.00
2023-04-24T06:21:12.409Z,98541.88
2023-04-24T06:24:05.507Z,98534.47
2023-04-24T06:27:00.985Z,98534.81
2023-04-24T06:29:55.506Z,98536.28
2023-04-24T06:32:47.897Z,98540.34
2023-04-24T06:38:50.082Z,98537.78
2023-04-24T06:41:43.317Z,98544.50
2023-04-24T06:44:45.248Z,98549.31
2023-04-24T06:50:50.647Z,98546.72
2023-04-24T06:56:58.088Z,98549.31
2023-04-24T06:59:50.563Z,98549.56
2023-04-24T07:02:43.198Z,98554.69
2023-04-24T07:05:36.205Z,98547.13
2023-04-24T07:08:29.081Z,98553.94
2023-04-24T07:11:23.009Z,98543.19
2023-04-24T07:14:18.030Z,98540.09
2023-04-24T07:17:11.035Z,98536.63
2023-04-24T07:20:04.012Z,98539.06
2023-04-24T07:22:57.152Z,98543.84
2023-04-24T07:25:49.795Z,98539.88
2023-04-24T07:28:42.821Z,98542.78
2023-04-24T07:31:33.333Z,98548.13
2023-04-24T07:34:26.224Z,98555.69
2023-04-24T07:37:56.278Z,98555.84
2023-04-24T07:40:49.267Z,98561.16
2023-04-24T07:46:55.689Z,98565.81
2023-04-24T07:49:47.814Z,98562.09
2023-04-24T07:52:40.975Z,98553.00
2023-04-24T07:55:33.837Z,98563.34
2023-04-24T07:58:26.725Z,98564.06
2023-04-24T08:01:19.775Z,98566.97
2023-04-24T08:04:14.312Z,98559.38
2023-04-24T08:07:06.670Z,98560.38
2023-04-24T08:10:00.249Z,98564.69
2023-04-24T08:12:54.197Z,98562.16
2023-04-24T08:15:47.102Z,98565.50
2023-04-24T08:18:40.094Z,98564.97
2023-04-24T08:21:34.652Z,98571.84
2023-04-24T08:24:27.044Z,98561.88
2023-04-24T08:30:40.748Z,98589.47
2023-04-24T08:33:35.398Z,98587.75
2023-04-24T08:36:35.936Z,98574.75
2023-04-24T08:39:38.357Z,98587.91
2023-04-24T08:42:32.646Z,98590.16
2023-04-24T08:45:26.957Z,98584.97
2023-04-24T08:48:44.826Z,98597.91
2023-04-24T08:51:38.921Z,98590.44
2023-04-24T08:54:32.857Z,98590.69
2023-04-24T09:00:40.438Z,98599.28
2023-04-24T09:06:57.635Z,98601.88
2023-04-24T09:12:56.065Z,98606.63
2023-04-24T09:15:50.806Z,98609.28
2023-04-24T09:18:43.950Z,98601.78
2023-04-24T09:21:37.900Z,98605.69
2023-04-24T09:24:30.732Z,98598.91
2023-04-24T09:27:25.584Z,98615.47
2023-04-24T09:30:22.873Z,98607.91
2023-04-24T09:33:17.654Z,98599.28
2023-04-24T09:36:10.371Z,98600.94
2023-04-24T09:39:03.574Z,98612.44
2023-04-24T09:41:58.663Z,98602.03
2023-04-24T09:44:55.182Z,98619.38
2023-04-24T09:47:54.817Z,98609.09
2023-04-24T09:50:54.046Z,98607.41
2023-04-24T09:53:48.241Z,98609.22
2023-04-24T10:00:27.914Z,98613.25
2023-04-24T10:03:21.190Z,98621.75
2023-04-24T10:06:15.973Z,98625.84
2023-04-24T10:12:30.842Z,98627.88
2023-04-24T10:15:24.109Z,98631.88
2023-04-24T10:18:17.643Z,98627.78
2023-04-24T10:21:10.330Z,98621.84
2023-04-24T10:24:29.444Z,98626.25
2023-04-24T10:27:22.457Z,98633.78
2023-04-24T10:30:15.980Z,98643.75
2023-04-24T10:33:02.540Z,98661.56
2023-04-24T10:39:01.150Z,98661.25
2023-04-24T10:41:50.595Z,98668.06
2023-04-24T10:44:38.333Z,98677.97
2023-04-24T10:47:24.204Z,98679.94
2023-04-24T10:50:11.926Z,98675.75
2023-04-24T10:53:07.687Z,98683.53
2023-04-24T10:55:59.936Z,98686.78
2023-04-24T11:02:13.317Z,98699.56
2023-04-24T11:04:59.461Z,98701.84
2023-04-24T11:08:14.300Z,98718.91
2023-04-24T11:11:11.818Z,98716.50
2023-04-24T11:17:31.232Z,98716.81
2023-04-24T11:23:41.716Z,98724.31
2023-04-24T11:29:51.561Z,98731.38
2023-04-24T11:32:45.438Z,98743.97
2023-04-24T11:35:41.258Z,98746.22
2023-04-24T11:38:31.046Z,98748.19
2023-04-24T11:41:23.869Z,98754.19
2023-04-24T11:44:54.091Z,98767.09
2023-04-24T11:47:47.867Z,98776.59
2023-04-24T11:50:41.047Z,98779.16
2023-04-24T11:53:33.699Z,98782.22
2023-04-24T11:56:26.128Z,98788.66
2023-04-24T11:59:19.312Z,98790.91
2023-04-24T12:02:23.012Z,98798.22
2023-04-24T12:05:23.099Z,98801.41
2023-04-24T12:11:27.054Z,98812.63
2023-04-24T12:14:19.747Z,98817.00
2023-04-24T12:17:11.975Z,98826.44
2023-04-24T12:20:06.373Z,98821.06
2023-04-24T12:23:01.719Z,98837.06
2023-04-24T12:25:54.143Z,98849.03
2023-04-24T12:32:17.779Z,98858.00
2023-04-24T12:38:48.041Z,98871.72
2023-04-24T12:42:02.113Z,98886.28
2023-04-24T12:44:58.684Z,98879.75
2023-04-24T12:51:26.994Z,98891.72
2023-04-24T12:54:57.111Z,98904.50
2023-04-24T12:57:51.412Z,98903.53
2023-04-24T13:00:46.594Z,98907.72
2023-04-24T13:03:38.774Z,98909.81
2023-04-24T13:06:32.394Z,98912.88
2023-04-24T13:09:25.388Z,98917.78
2023-04-24T13:12:18.007Z,98912.34
2023-04-24T13:15:12.611Z,98922.75
2023-04-24T13:21:09.709Z,98919.34
2023-04-24T13:24:02.107Z,98935.44
2023-04-24T13:26:55.073Z,98929.41
2023-04-24T13:29:47.964Z,98941.66
2023-04-24T13:32:42.523Z,98935.41
2023-04-24T13:35:34.875Z,98947.94
2023-04-24T13:38:27.475Z,98957.59
2023-04-24T13:41:36.061Z,98958.78
2023-04-24T13:44:27.361Z,98962.59
2023-04-24T13:47:20.024Z,98969.81
2023-04-24T13:50:14.416Z,98967.22
2023-04-24T13:53:06.525Z,98959.75
2023-04-24T13:55:58.757Z,98965.66
2023-04-24T13:58:53.789Z,98967.66
2023-04-24T14:01:48.624Z,98966.22
2023-04-24T14:04:42.356Z,98968.97
2023-04-24T14:07:36.187Z,98969.75
2023-04-24T14:10:29.025Z,98975.72
2023-04-24T14:16:34.289Z,98973.81
2023-04-24T14:19:27.126Z,98963.34
2023-04-24T14:22:19.859Z,98971.34
2023-04-24T14:25:14.280Z,98981.97
2023-04-24T14:28:08.079Z,98974.19
2023-04-24T14:31:00.668Z,98971.28
2023-04-24T14:37:05.473Z,98981.88
2023-04-24T14:40:11.892Z,98979.44
2023-04-24T14:43:12.194Z,98986.03
2023-04-24T14:46:05.563Z,98984.03
2023-04-24T14:48:58.064Z,98991.50
2023-04-24T14:55:03.242Z,98994.28
2023-04-24T15:01:13.885Z,98995.03
2023-04-24T15:04:07.229Z,98999.44
2023-04-24T15:07:00.086Z,99005.63
2023-04-24T15:09:53.026Z,99020.91
2023-04-24T15:12:45.866Z,99020.63
2023-04-24T15:15:38.980Z,99024.09
2023-04-24T15:18:33.246Z,99030.91
2023-04-24T15:24:44.986Z,99021.13
2023-04-24T15:27:42.391Z,99031.78
2023-04-24T15:30:34.611Z,99035.63
2023-04-24T15:33:27.403Z,99039.69
2023-04-24T15:36:22.181Z,99043.16
2023-04-24T15:42:51.062Z,99048.06
2023-04-24T15:45:44.763Z,99045.25
2023-04-24T15:48:39.755Z,99051.69
2023-04-24T15:51:33.132Z,99052.41
2023-04-24T15:54:26.376Z,99051.22
2023-04-24T15:57:19.172Z,99068.28
2023-04-24T16:00:13.630Z,99062.91
2023-04-24T16:03:09.273Z,99064.16
2023-04-24T16:06:02.962Z,99064.50
2023-04-24T16:08:59.245Z,99077.00
2023-04-24T16:11:52.990Z,99072.56
2023-04-24T16:14:46.132Z,99072.06
2023-04-24T16:17:39.088Z,99078.72
2023-04-24T16:20:31.846Z,99082.59
2023-04-24T16:23:25.222Z,99084.25
2023-04-24T16:30:06.590Z,99097.16
2023-04-24T16:32:58.757Z,99090.81
2023-04-24T16:35:52.061Z,99087.72
2023-04-24T16:38:45.177Z,99088.78
2023-04-24T16:41:37.603Z,99090.19
2023-04-24T16:44:29.668Z,99093.69
2023-04-24T16:47:59.216Z,99095.34
2023-04-24T16:50:53.278Z,99090.59
2023-04-24T16:56:58.265Z,99109.25
2023-04-24T16:59:50.872Z,99103.91
2023-04-24T17:02:44.613Z,99120.88
2023-04-24T17:05:38.246Z,99125.72
2023-04-24T17:08:32.694Z,99131.41
2023-04-24T17:11:24.966Z,99123.63
2023-04-24T17:14:17.923Z,99117.53
2023-04-24T17:17:11.048Z,99120.84
2023-04-24T17:20:14.920Z,99128.38
2023-04-24T17:23:13.593Z,99130.94
2023-04-24T17:26:07.181Z,99127.34
2023-04-24T17:29:00.116Z,99122.72
2023-04-24T17:31:53.148Z,99128.19
2023-04-24T17:34:46.356Z,99128.38
2023-04-24T17:37:39.737Z,99122.81
2023-04-24T17:40:31.812Z,99132.28
2023-04-24T17:43:27.037Z,99131.22
2023-04-24T17:46:20.134Z,99132.28
2023-04-24T17:49:12.870Z,99137.22
2023-04-24T17:52:05.794Z,99127.72
2023-04-24T17:54:58.955Z,99126.41
2023-04-24T17:57:51.782Z,99126.81
2023-04-24T18:00:45.616Z,99125.47
2023-04-24T18:03:38.358Z,99127.84
2023-04-24T18:06:30.753Z,99129.00
2023-04-24T18:09:23.023Z,99130.97
2023-04-24T18:12:16.238Z,99138.13
2023-04-24T18:15:14.418Z,99142.84
2023-04-24T18:18:09.202Z,99145.84
2023-04-24T18:21:01.558Z,99144.84
2023-04-24T18:23:55.042Z,99147.34
2023-04-24T18:26:48.005Z,99155.09
2023-04-24T18:29:40.901Z,99147.56
2023-04-24T18:35:51.992Z,99145.47
2023-04-24T18:38:45.186Z,99148.72
2023-04-24T18:41:38.268Z,99150.97
2023-04-24T18:44:30.736Z,99160.78
2023-04-24T18:47:23.124Z,99153.19
2023-04-24T18:50:19.781Z,99150.47
2023-04-24T18:53:16.937Z,99152.81
2023-04-24T18:56:09.789Z,99149.78
2023-04-24T18:59:04.778Z,99170.53
2023-04-24T19:01:57.062Z,99166.56
2023-04-24T19:04:50.239Z,99173.59
2023-04-24T19:07:42.984Z,99183.31
2023-04-24T19:10:36.927Z,99167.56
2023-04-24T19:13:29.838Z,99182.91
2023-04-24T19:16:29.784Z,99180.59
2023-04-24T19:19:23.697Z,99186.41
2023-04-24T19:22:16.141Z,99181.06
2023-04-24T19:25:09.569Z,99188.06
2023-04-24T19:28:03.342Z,99186.97
2023-04-24T19:30:58.344Z,99189.28
2023-04-24T19:33:51.133Z,99190.69
2023-04-24T19:36:44.142Z,99206.47
2023-04-24T19:39:37.266Z,99198.47
2023-04-24T19:45:36.304Z,99200.19
2023-04-24T19:51:45.232Z,99198.09
2023-04-24T19:57:54.271Z,99201.44
2023-04-24T20:00:48.365Z,99194.59
2023-04-24T20:03:41.231Z,99197.97
2023-04-24T20:06:29.934Z,99196.81
2023-04-24T20:09:23.125Z,99200.03
2023-04-24T20:12:16.043Z,99201.06
2023-04-24T20:15:09.806Z,99201.09
2023-04-24T20:18:04.334Z,99206.91
2023-04-24T20:20:59.451Z,99206.06
2023-04-24T20:23:52.568Z,99208.22
2023-04-24T20:26:44.813Z,99204.47
2023-04-24T20:29:38.121Z,99208.25
2023-04-24T20:32:31.443Z,99213.59
2023-04-24T20:35:25.340Z,99213.44
2023-04-24T20:38:18.340Z,99216.63
2023-04-24T20:41:10.938Z,99209.50
2023-04-24T20:44:04.308Z,99209.97
2023-04-24T20:46:57.168Z,99215.78
2023-04-24T20:53:04.041Z,99213.50
2023-04-24T20:55:57.149Z,99211.13
2023-04-24T20:58:52.456Z,99213.13
2023-04-24T21:01:48.522Z,99200.22
2023-04-24T21:04:40.988Z,99201.09
2023-04-24T21:07:36.638Z,99200.25
2023-04-24T21:10:30.189Z,99202.75
2023-04-24T21:13:23.069Z,99194.19
2023-04-24T21:19:44.828Z,99197.75
2023-04-24T21:22:38.233Z,99203.88
2023-04-24T21:25:32.340Z,99199.94
2023-04-24T21:31:31.336Z,99199.44
2023-04-24T21:37:40.370Z,99195.97
2023-04-24T21:40:34.213Z,99194.88
2023-04-24T21:43:37.065Z,99203.75
2023-04-24T21:49:52.306Z,99210.22
2023-04-24T21:56:02.595Z,99208.84
2023-04-24T21:58:55.198Z,99204.84
2023-04-24T22:01:47.969Z,99200.31
2023-04-24T22:04:50.430Z,99204.97
2023-04-24T22:07:46.032Z,99215.03
2023-04-24T22:10:38.867Z,99218.34
2023-04-24T22:13:32.983Z,99205.94
2023-04-24T22:16:27.753Z,99215.72
2023-04-24T22:19:21.946Z,99211.00
2023-04-24T22:22:15.153Z,99203.78
2023-04-24T22:28:20.254Z,99188.88
2023-04-24T22:31:14.470Z,99193.41
2023-04-24T22:34:00.808Z,99190.41
2023-04-24T22:36:54.104Z,99186.69
2023-04-24T22:39:47.014Z,99185.63
2023-04-24T22:42:39.877Z,99180.16
2023-04-24T22:45:32.797Z,99182.31
2023-04-24T22:48:26.843Z,99179.22
2023-04-24T22:51:19.755Z,99173.56
2023-04-24T22:54:12.621Z,99172.84
2023-04-24T22:57:05.022Z,99182.06
2023-04-24T22:59:57.888Z,99194.66
2023-04-24T23:06:05.303Z,99187.66
2023-04-24T23:08:57.804Z,99194.97
2023-04-24T23:11:51.077Z,99193.41
2023-04-24T23:14:44.225Z,99194.59
2023-04-24T23:17:36.954Z,99201.81
2023-04-24T23:20:41.354Z,99195.00
2023-04-24T23:23:35.087Z,99194.47
2023-04-24T23:26:27.931Z,99192.56
2023-04-24T23:32:31.932Z,99188.97
2023-04-24T23:35:25.758Z,99192.28
2023-04-24T23:38:30.130Z,99190.38
2023-04-24T23:41:21.671Z,99191.34
2023-04-24T23:47:33.187Z,99190.06
2023-04-24T23:50:19.924Z,99196.75
2023-04-24T23:53:06.060Z,99191.41
2023-04-24T23:56:27.168Z,99190.00
2023-04-24T23:59:14.683Z,99184.44
